Time;durP1;ratioP1;P1;durP2;ratioP2;P2;SDS_P1;SDS_P2;PMS_P1;PMS_P2;Temp;Humidity;BMP_temperature;BMP_pressure;BME280_temperature;BME280_humidity;BME280_pressure;Samples;Min_cycle;Max_cycle;Signal;HPM_P1;HPM_P2
2021/09/10 00:02:23;;;;;;;12.25;9.50;;;;;;;19.07;95.60;97805.75;4990384;28;20052;-60
2021/09/10 00:04:49;;;;;;;12.63;9.43;;;;;;;18.79;98.01;97815.78;4989223;28;20168;-60
2021/09/10 00:07:14;;;;;;;12.13;8.90;;;;;;;18.92;97.83;97815.72;4991177;28;20113;-60
2021/09/10 00:09:40;;;;;;;16.63;10.63;;;;;;;18.92;96.66;97821.00;4991289;28;20587;-60
2021/09/10 00:12:05;;;;;;;15.23;9.60;;;;;;;18.71;97.73;97818.19;4991389;28;20049;-60
2021/09/10 00:14:31;;;;;;;11.88;8.77;;;;;;;18.77;98.08;97816.88;4987584;28;20581;-60
2021/09/10 00:16:56;;;;;;;10.27;8.13;;;;;;;19.20;94.37;97818.81;4989878;28;20045;-60
2021/09/10 00:19:22;;;;;;;15.35;9.13;;;;;;;18.57;96.81;97821.88;4988135;28;20161;-60
2021/09/10 00:21:47;;;;;;;12.35;10.23;;;;;;;18.39;99.81;97821.47;4988717;28;20042;-60
2021/09/10 00:24:13;;;;;;;13.13;9.52;;;;;;;18.40;98.33;97825.00;4988399;28;20038;-64
2021/09/10 00:26:38;;;;;;;12.88;9.25;;;;;;;18.51;97.92;97822.38;4988042;28;20088;-60
2021/09/10 00:29:03;;;;;;;13.68;9.63;;;;;;;18.28;99.12;97822.28;4990831;28;20033;-61
2021/09/10 00:31:29;;;;;;;10.88;8.45;;;;;;;18.34;98.69;97820.16;4989921;28;20084;-60
2021/09/10 00:33:54;;;;;;;18.38;10.82;;;;;;;17.97;100.00;97833.47;4975076;28;20330;-60
2021/09/10 00:36:19;;;;;;;18.10;10.43;;;;;;;17.75;100.00;97828.88;4987468;28;20678;-60
2021/09/10 00:38:45;;;;;;;14.80;10.35;;;;;;;17.83;100.00;97830.03;4989984;28;20045;-60
2021/09/10 00:41:11;;;;;;;16.75;10.65;;;;;;;17.75;100.00;97827.09;4987440;28;20124;-60
2021/09/10 00:43:36;;;;;;;16.08;10.43;;;;;;;17.66;100.00;97825.13;4989812;28;20026;-60
2021/09/10 00:46:02;;;;;;;15.85;10.18;;;;;;;17.82;100.00;97828.31;4988350;28;20050;-60
2021/09/10 00:48:27;;;;;;;16.30;10.43;;;;;;;17.71;100.00;97821.19;4990285;28;20527;-60
2021/09/10 00:50:53;;;;;;;16.20;10.48;;;;;;;17.90;100.00;97827.78;4990070;28;20034;-60
2021/09/10 00:53:18;;;;;;;13.70;10.43;;;;;;;18.08;100.00;97830.88;4989909;28;20022;-59
2021/09/10 00:55:45;;;;;;;15.32;11.00;;;;;;;17.66;100.00;97830.41;4988868;28;20396;-60
2021/09/10 00:58:11;;;;;;;12.43;8.93;;;;;;;18.04;100.00;97826.78;4987824;28;20684;-60
2021/09/10 01:00:37;;;;;;;14.05;9.45;;;;;;;18.24;97.74;97820.84;4990158;28;20061;-59
2021/09/10 01:03:03;;;;;;;13.88;9.48;;;;;;;18.13;97.48;97822.63;4989788;28;20117;-60
2021/09/10 01:05:28;;;;;;;15.63;10.75;;;;;;;17.65;100.00;97823.44;4989660;28;20092;-61
2021/09/10 01:07:56;;;;;;;16.05;10.57;;;;;;;17.75;100.00;97824.44;4989073;28;20037;-60
2021/09/10 01:10:23;;;;;;;13.90;10.15;;;;;;;17.71;100.00;97833.53;4988861;28;20103;-60
2021/09/10 01:12:50;;;;;;;15.27;10.30;;;;;;;17.62;100.00;97824.50;4988652;28;20027;-60
2021/09/10 01:15:15;;;;;;;14.25;9.57;;;;;;;17.63;100.00;97831.47;4992280;28;20048;-61
2021/09/10 01:17:41;;;;;;;14.43;10.90;;;;;;;17.63;100.00;97825.38;4989303;28;20556;-59
2021/09/10 01:20:08;;;;;;;14.43;10.45;;;;;;;17.52;100.00;97824.34;4990774;28;20069;-60
2021/09/10 01:22:34;;;;;;;16.50;10.38;;;;;;;17.60;100.00;97822.94;4989945;28;20132;-59
2021/09/10 01:25:13;;;;;;;12.65;9.88;;;;;;;17.65;100.00;97828.72;5005132;28;20101;-62
2021/09/10 01:27:54;;;;;;;14.07;9.80;;;;;;;17.54;100.00;97830.34;4991195;28;20038;-61
2021/09/10 01:30:23;;;;;;;14.80;9.55;;;;;;;17.52;100.00;97832.25;4990713;28;20065;-60
2021/09/10 01:32:49;;;;;;;15.68;10.07;;;;;;;17.38;100.00;97821.84;4991722;28;20018;-60
2021/09/10 01:35:14;;;;;;;14.50;10.32;;;;;;;17.40;100.00;97830.47;4987485;28;20038;-60
2021/09/10 01:37:40;;;;;;;13.35;9.32;;;;;;;17.42;100.00;97833.84;4988595;28;20034;-60
2021/09/10 01:40:07;;;;;;;12.52;8.98;;;;;;;17.53;100.00;97826.03;4988930;28;20037;-59
2021/09/10 01:42:32;;;;;;;14.93;10.15;;;;;;;17.29;100.00;97835.69;4986621;28;20022;-60
2021/09/10 01:44:57;;;;;;;14.35;9.23;;;;;;;17.53;99.11;97831.31;4989307;28;20024;-60
2021/09/10 01:47:23;;;;;;;12.82;9.38;;;;;;;17.33;99.87;97835.38;4986279;28;20030;-60
2021/09/10 01:49:49;;;;;;;14.00;9.65;;;;;;;17.34;100.00;97837.03;4988158;28;20036;-62
2021/09/10 01:52:14;;;;;;;14.60;9.32;;;;;;;17.24;100.00;97841.28;4987002;28;20113;-60
2021/09/10 01:54:39;;;;;;;12.45;9.20;;;;;;;17.25;100.00;97834.22;4988090;28;20029;-60
2021/09/10 01:57:05;;;;;;;13.82;9.65;;;;;;;17.34;99.53;97841.47;4986961;28;20516;-63
2021/09/10 01:59:30;;;;;;;13.68;9.55;;;;;;;17.11;100.00;97835.19;4986386;28;20022;-60
2021/09/10 02:01:59;;;;;;;14.80;10.50;;;;;;;16.99;100.00;97829.00;4986421;28;20077;-61
2021/09/10 02:04:25;;;;;;;16.52;10.05;;;;;;;17.00;100.00;97838.59;4988180;28;20033;-60
2021/09/10 02:06:50;;;;;;;13.25;9.73;;;;;;;16.98;100.00;97839.63;4987113;28;20034;-61
2021/09/10 02:09:16;;;;;;;15.40;10.55;;;;;;;16.88;100.00;97844.69;4985886;28;20026;-60
2021/09/10 02:11:41;;;;;;;12.68;9.43;;;;;;;16.95;100.00;97838.91;4986725;28;20180;-60
2021/09/10 02:14:07;;;;;;;14.93;9.95;;;;;;;16.65;100.00;97844.47;4987590;28;20101;-59
2021/09/10 02:16:32;;;;;;;13.40;9.40;;;;;;;16.70;100.00;97846.78;4988249;28;20043;-60
2021/09/10 02:18:58;;;;;;;14.90;10.10;;;;;;;16.90;100.00;97842.81;4987671;28;20029;-60
2021/09/10 02:21:23;;;;;;;15.95;9.68;;;;;;;16.87;100.00;97845.63;4985449;28;20142;-60
2021/09/10 02:23:51;;;;;;;11.15;9.18;;;;;;;16.94;100.00;97844.25;4987974;28;20573;-60
2021/09/10 02:26:20;;;;;;;14.77;9.45;;;;;;;16.99;100.00;97852.69;4984970;28;20070;-60
2021/09/10 02:28:45;;;;;;;13.32;9.05;;;;;;;17.02;100.00;97841.09;4987217;28;20109;-61
2021/09/10 02:31:10;;;;;;;11.93;9.25;;;;;;;16.67;100.00;97837.31;4987775;28;20091;-62
2021/09/10 02:33:36;;;;;;;16.23;9.30;;;;;;;16.56;100.00;97845.09;4986202;28;20399;-61
2021/09/10 02:36:01;;;;;;;13.35;9.38;;;;;;;16.66;100.00;97832.97;4986005;28;20042;-61
2021/09/10 02:38:27;;;;;;;13.13;8.98;;;;;;;16.53;100.00;97834.75;4987125;28;20060;-60
2021/09/10 02:40:53;;;;;;;12.73;8.73;;;;;;;16.67;100.00;97837.31;4985965;28;20047;-60
2021/09/10 02:43:18;;;;;;;12.43;8.75;;;;;;;16.80;100.00;97833.81;4987869;28;20034;-60
2021/09/10 02:45:44;;;;;;;11.05;7.72;;;;;;;16.89;99.28;97839.34;4986115;28;20038;-60
2021/09/10 02:48:09;;;;;;;14.07;8.60;;;;;;;16.60;100.00;97833.41;4985230;28;20034;-60
2021/09/10 02:50:35;;;;;;;13.95;9.00;;;;;;;16.28;100.00;97839.03;4988047;28;20125;-61
2021/09/10 02:53:00;;;;;;;17.50;9.18;;;;;;;16.27;100.00;97836.53;4987381;28;20018;-61
2021/09/10 02:55:26;;;;;;;13.10;9.50;;;;;;;16.28;100.00;97831.13;4987092;28;20462;-60
2021/09/10 02:57:51;;;;;;;11.38;8.48;;;;;;;16.35;100.00;97837.69;4992111;28;20069;-60
2021/09/10 03:00:19;;;;;;;14.13;9.00;;;;;;;16.21;100.00;97839.53;4990143;28;20109;-60
2021/09/10 03:02:45;;;;;;;12.10;7.97;;;;;;;16.30;100.00;97834.53;4989093;28;20022;-60
2021/09/10 03:05:11;;;;;;;11.02;8.05;;;;;;;16.24;100.00;97840.19;4990441;28;20084;-60
2021/09/10 03:07:36;;;;;;;14.48;9.15;;;;;;;16.30;100.00;97829.28;4990426;28;20493;-61
2021/09/10 03:10:03;;;;;;;15.32;8.27;;;;;;;16.49;100.00;97833.28;4992975;28;20030;-61
2021/09/10 03:12:28;;;;;;;10.63;8.32;;;;;;;16.35;100.00;97832.41;4992646;28;20061;-60
2021/09/10 03:14:54;;;;;;;11.82;8.40;;;;;;;16.19;100.00;97831.75;4991773;28;20037;-60
2021/09/10 03:17:25;;;;;;;12.50;8.13;;;;;;;16.17;100.00;97828.38;4991368;28;20084;-60
2021/09/10 03:19:50;;;;;;;13.57;8.93;;;;;;;16.40;100.00;97824.22;4990620;28;20025;-60
2021/09/10 03:22:16;;;;;;;11.20;8.38;;;;;;;16.24;100.00;97821.75;4989547;28;20045;-60
2021/09/10 03:24:41;;;;;;;10.82;8.30;;;;;;;16.16;100.00;97829.34;4991602;28;20857;-59
2021/09/10 03:27:06;;;;;;;10.88;8.10;;;;;;;16.31;100.00;97825.66;4992092;28;20124;-60
2021/09/10 03:29:32;;;;;;;15.60;8.05;;;;;;;16.45;100.00;97822.13;4988668;28;20109;-61
2021/09/10 03:31:57;;;;;;;9.80;7.82;;;;;;;16.37;100.00;97830.50;4988323;28;20249;-60
2021/09/10 03:34:23;;;;;;;11.77;8.60;;;;;;;16.19;100.00;97831.75;4988982;28;20034;-60
2021/09/10 03:36:48;;;;;;;11.05;8.20;;;;;;;16.25;100.00;97831.34;4990978;28;20107;-61
2021/09/10 03:39:15;;;;;;;11.38;7.70;;;;;;;16.41;100.00;97833.78;4989898;28;20030;-59
2021/09/10 03:41:40;;;;;;;10.82;8.10;;;;;;;16.16;100.00;97829.34;4989137;28;20029;-62
2021/09/10 03:44:05;;;;;;;11.23;8.15;;;;;;;16.24;100.00;97829.66;4992066;28;20158;-60
2021/09/10 03:46:31;;;;;;;12.00;8.00;;;;;;;16.43;100.00;97828.41;4988011;28;20121;-60
2021/09/10 03:48:56;;;;;;;12.30;7.55;;;;;;;16.27;100.00;97832.09;4991062;28;20022;-62
2021/09/10 03:51:24;;;;;;;12.38;8.30;;;;;;;16.42;100.00;97832.03;4990486;28;20034;-61
2021/09/10 03:53:49;;;;;;;11.10;8.30;;;;;;;16.25;100.00;97834.00;4990328;28;20030;-60
2021/09/10 03:56:15;;;;;;;10.82;7.60;;;;;;;16.41;100.00;97835.59;4988853;28;20030;-61
2021/09/10 03:58:41;;;;;;;13.00;8.55;;;;;;;16.14;100.00;97833.88;4990586;28;20117;-60
2021/09/10 04:01:06;;;;;;;12.75;7.80;;;;;;;15.98;100.00;97839.28;4988895;28;20152;-60
2021/09/10 04:03:31;;;;;;;11.18;8.30;;;;;;;16.05;100.00;97830.03;4994339;28;20037;-62
2021/09/10 04:05:57;;;;;;;12.60;8.40;;;;;;;16.07;100.00;97841.31;4989056;28;20054;-60
2021/09/10 04:08:22;;;;;;;13.30;8.15;;;;;;;16.39;100.00;97838.31;4988357;28;20153;-60
2021/09/10 04:10:48;;;;;;;11.60;7.10;;;;;;;16.82;99.55;97839.81;4988821;28;20125;-60
2021/09/10 04:13:13;;;;;;;12.05;8.55;;;;;;;16.31;100.00;97841.47;4987796;28;20038;-63
2021/09/10 04:15:38;;;;;;;12.93;8.60;;;;;;;16.11;100.00;97844.59;4987556;28;20038;-61
2021/09/10 04:18:04;;;;;;;12.30;8.30;;;;;;;15.98;100.00;97837.50;4994519;28;20026;-61
2021/09/10 04:20:34;;;;;;;14.98;9.00;;;;;;;15.99;100.00;97840.97;4993378;28;20041;-60
2021/09/10 04:22:59;;;;;;;11.75;8.55;;;;;;;15.95;100.00;97845.59;4989675;28;20030;-62
2021/09/10 04:25:25;;;;;;;14.32;8.25;;;;;;;16.01;100.00;97847.00;4988937;28;20100;-60
2021/09/10 04:27:50;;;;;;;10.95;8.35;;;;;;;16.12;100.00;97841.00;4997354;28;20089;-61
2021/09/10 04:30:16;;;;;;;10.95;8.07;;;;;;;16.13;100.00;97838.25;4988673;28;20845;-63
2021/09/10 04:32:41;;;;;;;10.38;7.70;;;;;;;16.32;100.00;97844.94;4988242;28;20017;-60
2021/09/10 04:35:08;;;;;;;10.95;8.05;;;;;;;16.20;100.00;97838.72;4988658;28;20680;-61
2021/09/10 04:37:33;;;;;;;13.98;7.85;;;;;;;16.18;100.00;97840.59;4989471;28;20035;-60
2021/09/10 04:40:00;;;;;;;11.68;7.80;;;;;;;16.24;100.00;97842.81;4987328;28;20026;-60
2021/09/10 04:42:26;;;;;;;12.75;7.65;;;;;;;16.37;100.00;97841.03;4990373;28;20069;-60
2021/09/10 04:44:51;;;;;;;12.60;8.15;;;;;;;16.10;100.00;97842.88;5004849;28;20117;-60
2021/09/10 04:47:17;;;;;;;10.75;8.38;;;;;;;15.97;100.00;97843.72;4996435;28;20113;-62
2021/09/10 04:49:42;;;;;;;14.05;8.50;;;;;;;15.97;100.00;97841.09;4988662;28;20053;-60
2021/09/10 04:52:10;;;;;;;14.23;8.30;;;;;;;16.23;100.00;97837.66;4987695;28;20041;-61
2021/09/10 04:54:36;;;;;;;8.75;6.28;;;;;;;17.03;98.01;97838.34;4989123;28;20049;-60
2021/09/10 04:57:01;;;;;;;10.18;7.25;;;;;;;16.41;99.09;97843.47;4990000;28;20045;-60
2021/09/10 04:59:27;;;;;;;11.38;8.27;;;;;;;16.13;100.00;97840.06;4991306;28;20698;-60
2021/09/10 05:01:52;;;;;;;12.25;8.07;;;;;;;16.14;100.00;97841.75;4983973;28;20066;-61
2021/09/10 05:04:26;;;;;;;9.10;7.45;;;;;;;16.40;100.00;97841.81;4993572;28;20068;-61
2021/09/10 05:06:52;;;;;;;9.18;6.80;;;;;;;16.47;100.00;97846.56;4992835;28;20125;-60
2021/09/10 05:09:18;;;;;;;8.68;6.90;;;;;;;16.40;99.60;97840.00;4990704;28;20105;-61
2021/09/10 05:11:43;;;;;;;13.32;7.05;;;;;;;16.40;100.00;97847.06;4991485;28;20042;-60
2021/09/10 05:14:09;;;;;;;11.38;7.72;;;;;;;16.33;100.00;97847.47;4992070;28;20474;-62
2021/09/10 05:16:36;;;;;;;12.95;7.38;;;;;;;16.34;100.00;97845.69;4989942;28;20045;-60
2021/09/10 05:19:03;;;;;;;9.15;6.75;;;;;;;16.49;100.00;97841.19;4990155;28;20109;-62
2021/09/10 05:21:28;;;;;;;10.50;7.60;;;;;;;16.52;100.00;97843.59;4988454;28;20591;-61
2021/09/10 05:23:53;;;;;;;9.43;7.13;;;;;;;16.80;98.93;97847.84;4989449;28;20475;-60
2021/09/10 05:26:19;;;;;;;10.35;7.03;;;;;;;17.24;95.87;97851.84;4989064;28;20041;-63
2021/09/10 05:28:45;;;;;;;11.80;7.22;;;;;;;17.52;92.53;97849.88;4992197;28;20124;-60
2021/09/10 05:31:14;;;;;;;9.50;6.70;;;;;;;17.73;92.99;97847.47;4989624;28;20508;-62
2021/09/10 05:33:39;;;;;;;7.57;6.10;;;;;;;18.29;91.65;97860.94;4987641;28;20026;-60
2021/09/10 05:36:05;;;;;;;7.38;5.95;;;;;;;18.70;90.67;97848.22;4991491;28;20033;-65
2021/09/10 05:38:31;;;;;;;9.40;5.72;;;;;;;18.47;86.77;97858.72;5005882;28;20061;-61
2021/09/10 05:41:02;;;;;;;8.60;6.57;;;;;;;18.22;91.90;97857.09;4990051;28;20100;-62
2021/09/10 05:43:30;;;;;;;9.80;7.07;;;;;;;17.71;91.25;97860.75;4988748;28;20034;-61
2021/09/10 05:45:56;;;;;;;11.40;7.35;;;;;;;17.98;91.50;97854.47;4992140;28;20120;-61
2021/09/10 05:48:22;;;;;;;15.52;7.60;;;;;;;17.46;94.67;97863.47;4990036;28;20080;-62
2021/09/10 05:50:49;;;;;;;10.63;7.55;;;;;;;17.90;93.08;97862.94;4985353;28;20054;-64
2021/09/10 05:53:17;;;;;;;8.10;6.72;;;;;;;18.78;88.09;97850.25;4986174;28;20025;-60
2021/09/10 05:55:43;;;;;;;10.75;6.75;;;;;;;19.12;88.10;97853.81;4988890;28;20519;-61
2021/09/10 05:58:09;;;;;;;8.93;6.55;;;;;;;18.86;87.73;97853.19;4988722;28;20034;-61
2021/09/10 06:00:36;;;;;;;9.50;7.13;;;;;;;18.69;87.03;97855.31;4987760;28;20530;-61
2021/09/10 06:03:02;;;;;;;11.65;7.40;;;;;;;18.78;87.10;97852.91;4993381;28;20042;-62
2021/09/10 06:05:28;;;;;;;11.80;7.25;;;;;;;19.25;85.30;97854.50;4990806;28;20061;-61
2021/09/10 06:07:53;;;;;;;10.35;7.38;;;;;;;18.57;88.32;97847.47;4988615;28;20134;-61
2021/09/10 06:10:19;;;;;;;11.48;8.02;;;;;;;18.13;91.34;97855.13;4974286;28;20047;-62
2021/09/10 06:12:48;;;;;;;11.30;7.38;;;;;;;18.56;90.22;97851.88;4991879;28;20034;-64
2021/09/10 06:15:13;;;;;;;12.43;8.23;;;;;;;18.26;91.17;97855.88;4989214;28;20109;-62
2021/09/10 06:17:40;;;;;;;10.63;8.38;;;;;;;18.22;92.18;97869.44;4991170;28;20026;-62
2021/09/10 06:20:06;;;;;;;11.43;8.25;;;;;;;19.40;86.34;97862.19;4989514;28;20030;-61
2021/09/10 06:22:32;;;;;;;12.27;8.10;;;;;;;19.89;83.01;97863.59;4999005;28;20037;-62
2021/09/10 06:24:58;;;;;;;11.85;7.63;;;;;;;19.89;84.14;97871.53;4991362;28;20040;-65
2021/09/10 06:27:23;;;;;;;12.57;7.00;;;;;;;19.87;83.68;97869.94;4991247;28;20046;-61
2021/09/10 06:29:49;;;;;;;14.23;7.60;;;;;;;20.44;81.78;97866.16;4990362;28;20029;-62
2021/09/10 06:32:17;;;;;;;12.32;7.00;;;;;;;20.78;80.78;97865.97;4996009;28;20041;-61
2021/09/10 06:34:42;;;;;;;10.52;7.05;;;;;;;21.55;75.34;97869.97;4995105;28;20955;-62
2021/09/10 06:37:07;;;;;;;10.75;7.72;;;;;;;21.76;75.14;97875.19;4993929;28;20122;-63
2021/09/10 06:39:37;;;;;;;11.07;7.95;;;;;;;22.74;69.76;97868.09;4993786;28;20044;-62
2021/09/10 06:42:05;;;;;;;13.52;7.90;;;;;;;21.92;72.50;97874.66;4993098;28;20037;-64
2021/09/10 06:44:40;;;;;;;13.68;7.68;;;;;;;22.42;71.05;97879.88;4993466;28;20065;-64
2021/09/10 06:47:05;;;;;;;13.35;8.38;;;;;;;23.07;70.14;97868.63;4990165;28;20044;-61
2021/09/10 06:49:33;;;;;;;12.68;7.93;;;;;;;23.90;67.64;97873.16;4993440;28;20567;-59
2021/09/10 06:52:08;;;;;;;12.00;7.40;;;;;;;24.62;64.20;97868.66;4997542;28;20650;-60
2021/09/10 06:54:36;;;;;;;13.23;6.80;;;;;;;24.23;65.52;97868.97;4993369;28;20030;-60
2021/09/10 06:57:07;;;;;;;11.90;6.70;;;;;;;23.14;69.26;97875.03;4993046;28;20090;-60
2021/09/10 06:59:33;;;;;;;10.75;6.93;;;;;;;22.33;71.91;97870.94;4995506;28;20029;-60
2021/09/10 07:02:07;;;;;;;11.80;7.07;;;;;;;22.69;71.60;97868.53;4994898;28;20081;-60
2021/09/10 07:04:35;;;;;;;9.27;6.90;;;;;;;22.63;72.20;97877.06;4992399;28;20087;-60
2021/09/10 07:07:11;;;;;;;8.30;6.55;;;;;;;22.58;72.67;97883.81;4994293;28;20073;-61
2021/09/10 07:09:39;;;;;;;8.60;6.45;;;;;;;23.63;68.78;97875.63;4995160;28;20041;-61
2021/09/10 07:12:08;;;;;;;11.25;7.20;;;;;;;22.81;70.17;97874.53;4993825;28;20033;-60
2021/09/10 07:14:42;;;;;;;10.70;6.65;;;;;;;24.57;66.57;97876.28;4992919;28;20038;-65
2021/09/10 07:17:08;;;;;;;9.25;6.72;;;;;;;25.39;63.40;97876.84;4994188;28;20468;-61
2021/09/10 07:19:39;;;;;;;12.60;6.95;;;;;;;23.85;67.13;97884.25;4991830;28;20483;-62
2021/09/10 07:22:14;;;;;;;11.90;6.70;;;;;;;23.54;68.32;97881.84;4991953;28;20129;-62
2021/09/10 07:24:39;;;;;;;8.73;6.00;;;;;;;26.11;61.44;97884.44;4991615;28;20076;-61
2021/09/10 07:27:14;;;;;;;8.88;5.68;;;;;;;28.16;55.63;97884.06;4992843;28;20569;-63
2021/09/10 07:29:39;;;;;;;9.52;6.15;;;;;;;27.10;57.08;97886.13;4992420;28;20026;-61
2021/09/10 07:32:11;;;;;;;10.55;5.50;;;;;;;30.71;48.94;97886.53;4995663;28;20053;-62
2021/09/10 07:34:39;;;;;;;;;;;;;;;29.78;51.10;97884.56;5002165;28;20541;-62
2021/09/10 07:37:13;;;;;;;9.73;5.80;;;;;;;30.26;48.86;97891.28;4994887;28;19932;-62
2021/09/10 07:39:41;;;;;;;8.18;5.20;;;;;;;31.57;45.19;97890.91;4994383;28;20026;-63
2021/09/10 07:42:10;;;;;;;9.45;5.65;;;;;;;31.16;43.75;97889.81;4993138;28;20669;-63
2021/09/10 07:44:41;;;;;;;7.60;5.35;;;;;;;30.63;45.58;97894.78;4993859;28;20025;-63
2021/09/10 07:47:11;;;;;;;8.93;5.70;;;;;;;30.52;46.22;97894.25;4991382;28;20039;-62
2021/09/10 07:49:42;;;;;;;7.68;5.43;;;;;;;30.61;45.06;97886.88;4993991;28;20060;-62
2021/09/10 07:52:11;;;;;;;7.88;5.22;;;;;;;31.88;42.58;97885.03;4989590;28;20042;-62
2021/09/10 07:54:45;;;;;;;10.10;5.63;;;;;;;30.91;43.81;97890.25;4994164;28;20034;-62
2021/09/10 07:57:13;;;;;;;8.35;4.95;;;;;;;33.36;40.08;97892.22;4991945;28;20038;-62
2021/09/10 07:59:41;;;;;;;6.97;5.10;;;;;;;33.84;38.82;97896.47;4994429;28;20051;-62
2021/09/10 08:02:13;;;;;;;7.85;5.50;;;;;;;31.68;41.43;97888.47;4990836;28;20096;-64
2021/09/10 08:04:41;;;;;;;8.55;5.47;;;;;;;34.50;37.81;97895.28;4992375;28;20026;-62
2021/09/10 08:07:12;;;;;;;7.80;5.03;;;;;;;33.68;38.98;97897.81;5000461;28;20034;-63
2021/09/10 08:09:44;;;;;;;;;;;;;;;35.42;36.41;97901.00;4992451;28;20484;-66
2021/09/10 08:12:09;;;;;;;7.97;4.90;;;;;;;34.22;37.20;97899.22;5000297;28;19925;-62
2021/09/10 08:14:34;;;;;;;7.72;5.10;;;;;;;33.46;36.59;97903.44;4993795;28;20119;-63
2021/09/10 08:17:00;;;;;;;8.05;5.20;;;;;;;34.87;34.10;97911.69;4991857;28;20074;-63
2021/09/10 08:19:28;;;;;;;6.40;5.00;;;;;;;35.18;34.19;97902.69;4992965;28;20034;-63
2021/09/10 08:22:03;;;;;;;7.15;4.75;;;;;;;35.90;34.11;97900.25;4991896;28;20050;-63
2021/09/10 08:24:28;;;;;;;7.88;5.18;;;;;;;34.76;35.35;97910.56;4989761;28;20042;-65
2021/09/10 08:27:03;;;;;;;7.85;4.80;;;;;;;35.79;34.66;97905.59;4990751;28;20049;-62
2021/09/10 08:29:31;;;;;;;8.80;5.40;;;;;;;32.73;36.94;97901.63;4992181;28;20025;-64
2021/09/10 08:31:59;;;;;;;7.43;5.07;;;;;;;32.36;38.28;97906.53;4989251;28;20129;-64
2021/09/10 08:34:29;;;;;;;10.02;5.32;;;;;;;34.30;35.45;97909.81;4991240;28;20465;-63
2021/09/10 08:37:04;;;;;;;7.82;4.97;;;;;;;33.97;35.49;97910.78;4992283;28;20788;-62
2021/09/10 08:39:32;;;;;;;8.50;5.05;;;;;;;34.04;35.40;97912.59;4991526;28;20026;-63
2021/09/10 08:42:01;;;;;;;10.77;5.43;;;;;;;35.49;33.70;97914.47;4990315;28;20038;-63
2021/09/10 08:44:33;;;;;;;10.82;5.70;;;;;;;33.93;35.50;97912.25;5001116;28;20036;-63
2021/09/10 08:47:01;;;;;;;6.50;5.10;;;;;;;35.58;33.71;97917.72;4993810;28;20037;-64
2021/09/10 08:49:34;;;;;;;7.43;5.32;;;;;;;37.56;31.02;97911.44;4993558;28;20075;-65
2021/09/10 08:52:03;;;;;;;7.75;5.50;;;;;;;36.04;32.77;97911.72;4992043;28;20534;-62
2021/09/10 08:54:31;;;;;;;8.48;5.43;;;;;;;33.26;36.85;97913.47;4989087;28;20496;-66
2021/09/10 08:57:05;;;;;;;7.38;5.40;;;;;;;33.38;36.83;97909.91;4991274;28;20495;-63
2021/09/10 08:59:33;;;;;;;7.80;5.22;;;;;;;32.55;37.62;97915.72;4992569;28;20026;-64
2021/09/10 09:01:59;;;;;;;8.52;5.55;;;;;;;33.32;36.28;97920.72;4990574;28;20070;-64
2021/09/10 09:04:34;;;;;;;6.90;5.45;;;;;;;33.80;35.80;97918.56;4993826;28;20065;-63
2021/09/10 09:07:09;;;;;;;7.95;5.40;;;;;;;33.20;37.21;97918.69;4989087;28;20819;-63
2021/09/10 09:09:47;;;;;;;9.57;5.63;;;;;;;33.66;36.70;97905.31;4990292;28;20066;-63
2021/09/10 09:12:36;;;;;;;8.43;5.25;;;;;;;34.96;33.69;97913.09;4994173;28;20061;-63
2021/09/10 09:15:07;;;;;;;7.00;5.20;;;;;;;34.24;34.85;97915.25;4989273;28;20038;-63
2021/09/10 09:17:37;;;;;;;7.82;5.30;;;;;;;33.63;36.16;97902.97;4989903;28;20053;-63
2021/09/10 09:20:13;;;;;;;8.70;5.30;;;;;;;33.23;36.24;97906.59;4991117;28;20113;-61
2021/09/10 09:23:06;;;;;;;6.53;4.80;;;;;;;34.22;35.68;97901.09;4989397;28;20109;-63
2021/09/10 09:25:46;;;;;;;8.70;4.90;;;;;;;36.41;31.94;97905.41;4993445;28;20044;-64
2021/09/10 09:28:38;;;;;;;8.88;5.20;;;;;;;35.08;33.07;97905.88;4992346;28;20045;-63
2021/09/10 09:31:06;;;;;;;10.35;5.43;;;;;;;32.94;36.42;97902.44;4990940;28;20042;-63
2021/09/10 09:33:41;;;;;;;8.52;5.25;;;;;;;34.35;34.88;97904.56;4993108;28;20037;-65
2021/09/10 09:36:19;;;;;;;8.68;5.03;;;;;;;34.21;35.63;97897.56;4998426;28;20822;-65
2021/09/10 09:38:45;;;;;;;7.00;4.88;;;;;;;34.75;34.23;97890.75;4990924;28;20096;-63
2021/09/10 09:41:24;;;;;;;7.05;4.80;;;;;;;33.88;35.81;97897.72;4991271;28;20459;-64
2021/09/10 09:43:51;;;;;;;8.02;5.15;;;;;;;34.25;34.77;97898.78;4990490;28;20028;-66
2021/09/10 09:46:23;;;;;;;8.98;5.18;;;;;;;32.41;37.12;97893.28;4990976;28;20548;-63
2021/09/10 09:48:51;;;;;;;9.65;5.10;;;;;;;34.64;34.18;97891.44;4988783;28;20436;-63
2021/09/10 09:51:22;;;;;;;7.93;5.10;;;;;;;33.98;34.82;97901.59;4990616;28;20519;-63
2021/09/10 09:53:57;;;;;;;8.83;5.10;;;;;;;34.40;34.29;97894.94;4990305;28;20026;-63
2021/09/10 09:56:24;;;;;;;9.90;4.90;;;;;;;34.40;34.49;97900.38;4986992;28;20396;-64
2021/09/10 09:58:49;;;;;;;8.95;4.93;;;;;;;34.59;33.33;97910.22;4996243;28;20037;-62
2021/09/10 10:01:25;;;;;;;6.72;5.10;;;;;;;32.33;36.72;97896.19;4989836;28;20042;-63
2021/09/10 10:03:53;;;;;;;9.73;5.38;;;;;;;31.37;38.92;97890.75;4990799;28;20094;-63
2021/09/10 10:06:43;;;;;;;8.32;4.80;;;;;;;34.71;33.90;97903.06;4992584;28;20093;-63
2021/09/10 10:09:15;;;;;;;6.22;4.88;;;;;;;33.34;35.81;97894.31;4995887;28;20773;-63
2021/09/10 10:11:47;;;;;;;12.85;5.13;;;;;;;33.30;35.62;97885.81;4995444;28;20037;-63
2021/09/10 10:14:15;;;;;;;9.73;4.90;;;;;;;34.02;36.89;97895.75;4995021;28;20034;-63
2021/09/10 10:16:44;;;;;;;6.93;4.85;;;;;;;34.60;35.26;97894.81;4994975;28;20122;-61
2021/09/10 10:19:22;;;;;;;13.60;5.35;;;;;;;34.44;34.78;97890.75;4993313;28;20202;-63
2021/09/10 10:21:48;;;;;;;8.40;5.13;;;;;;;32.38;38.62;97880.19;4992273;28;20038;-63
2021/09/10 10:24:55;;;;;;;8.73;5.03;;;;;;;32.47;38.17;97876.25;4993408;28;20037;-62
2021/09/10 10:28:04;;;;;;;10.55;5.03;;;;;;;32.84;36.13;97882.09;4993661;28;20894;-61
2021/09/10 10:30:36;;;;;;;10.68;5.40;;;;;;;32.88;37.65;97868.19;4978161;28;20107;-63
2021/09/10 10:33:26;;;;;;;8.63;5.65;;;;;;;33.47;36.04;97863.72;4994812;28;20030;-62
2021/09/10 10:35:54;;;;;;;8.95;5.78;;;;;;;33.85;35.76;97862.97;4991127;28;20077;-62
2021/09/10 10:38:26;;;;;;;7.60;4.95;;;;;;;33.42;36.21;97862.50;4995187;28;20149;-64
2021/09/10 10:40:55;;;;;;;11.65;5.43;;;;;;;32.69;37.41;97861.75;5001993;28;20045;-64
2021/09/10 10:43:29;;;;;;;7.40;4.90;;;;;;;32.69;39.53;97862.59;4995884;28;20496;-62
2021/09/10 10:46:10;;;;;;;9.23;5.03;;;;;;;31.89;39.30;97860.56;4995136;28;20104;-63
2021/09/10 10:49:02;;;;;;;9.25;5.32;;;;;;;33.70;35.59;97852.44;4995278;28;20120;-62
2021/09/10 10:51:30;;;;;;;7.15;5.35;;;;;;;32.63;36.75;97847.22;4991309;28;20054;-64
2021/09/10 10:53:55;;;;;;;9.70;4.90;;;;;;;33.44;35.32;97847.94;4994697;28;20523;-61
2021/09/10 10:56:34;;;;;;;7.07;4.70;;;;;;;32.38;36.67;97849.66;4998914;28;20050;-62
2021/09/10 10:59:27;;;;;;;8.30;5.22;;;;;;;31.32;37.82;97845.53;4995229;28;20783;-63
2021/09/10 11:02:34;;;;;;;7.90;5.00;;;;;;;31.70;35.99;97839.72;5008053;28;20042;-61
2021/09/10 11:05:33;;;;;;;10.13;5.10;;;;;;;31.72;37.83;97844.94;4993905;28;20096;-61
2021/09/10 11:07:58;;;;;;;7.95;5.22;;;;;;;31.57;38.45;97843.22;4990566;28;20512;-61
2021/09/10 11:10:27;;;;;;;9.77;5.05;;;;;;;32.11;35.83;97838.84;4992625;28;20038;-61
2021/09/10 11:12:58;;;;;;;6.72;4.72;;;;;;;31.14;37.75;97840.69;4992645;28;20030;-61
2021/09/10 11:15:29;;;;;;;8.77;4.80;;;;;;;32.27;36.57;97834.91;4992888;28;20041;-61
2021/09/10 11:17:57;;;;;;;7.28;5.40;;;;;;;31.95;36.79;97834.63;4992894;28;20034;-61
2021/09/10 11:20:46;;;;;;;8.52;4.82;;;;;;;31.69;36.16;97833.53;4992016;28;20085;-61
2021/09/10 11:23:17;;;;;;;6.80;4.70;;;;;;;30.98;36.77;97835.63;4995012;28;20092;-61
2021/09/10 11:25:53;;;;;;;7.03;4.55;;;;;;;31.61;36.65;97828.28;4992057;28;20281;-61
2021/09/10 11:28:20;;;;;;;10.82;5.10;;;;;;;30.87;38.01;97832.41;4994576;28;20018;-61
2021/09/10 11:30:48;;;;;;;7.30;5.05;;;;;;;30.50;38.56;97837.09;4993617;28;20125;-61
2021/09/10 11:33:17;;;;;;;6.38;4.93;;;;;;;29.93;39.56;97835.28;4993063;28;20026;-62